Airfield :
LOGIN :

Register | Disclaimer

   EN    FR    IT 

 










Legend :    VFR   Marginal VFR   IFR   Intensive IFR   Very Intensive IFR
Visi :
Ceiling :
>= 8 km
>= 3000ft
5 to 8 km
1000 to 3000 ft
1500m to 5 km
500 to 1000 ft
800 to 1500m
200 to 500 ft
< 800m
< 200 ft
Symbols :   Thunderstorms  Fog  Heavy snow  Heavy precipitations  Wind > 20 kt
SIGMETs :     Misc.  Thunderstorms  Icing  Turbulence  Mountain Waves  Volcanic Ashes






- Airport Elevation : 147 ft
- IATA code : DUS


EDDL - Düsseldorf Int.

CURRENT METAR :
  • 270820Z 16010KT 9999 FEW042 04/01 Q1002 NOSIG

EXPIRED METARs :
  • 270750Z 17011KT 9999 FEW035 03/01 Q1002 NOSIG
  • 270720Z 16009KT 9999 FEW035 03/01 Q1003 NOSIG
  • 270650Z 16007KT 9999 FEW035 03/01 Q1003 NOSIG
  • 270620Z 16007KT 9999 FEW035 02/01 Q1003 NOSIG
  • 270550Z 17008KT 9999 SCT035 03/01 Q1004 NOSIG

TAF TAF EDDL
Valid from the 27 at 06:00 until the 28 at 12:00 UTC


270500Z 2706/2812 24009KT 9999 FEW020
BECMG 2706/2709 15010KT
BECMG 2711/2714 09008KT BKN012
TEMPO 2712/2717 4500 RA BKN008
BECMG 2716/2719 28009KT
TEMPO 2717/2724 3000 SNRA BKN005
PROB30
TEMPO 2718/2724 1400 SN
BECMG 2723/2802 SCT012
BECMG 2803/2806 22010KT



MET'MAP, your aeronautical weather chart ! - Copyright ORBIFLY December 2007 - Disclaimer

ORBIFLY MET'MAP TEAM :

Programming & Development : Alexandra Zaïnal
Concept & original design : Baudouin d'Aumeries
Assistance for programming : Marc-Olivier Méhu
Technical & hardware support : Manuel Goepfert

Contact : metmap@orbifly.com




SOURCES & CREDITS :

   NOAA